sensor_id;sensor_type;location;lat;lon;timestamp;pressure;altitude;pressure_sealevel;temperature;humidity
47430;BME280;33181;49.246;7.372;2023-04-20T00:01:40;98899.78;;;7.03;53.51
47430;BME280;33181;49.246;7.372;2023-04-20T00:04:07;98891.72;;;6.93;53.62
47430;BME280;33181;49.246;7.372;2023-04-20T00:06:33;98892.66;;;6.92;53.73
47430;BME280;33181;49.246;7.372;2023-04-20T00:09:00;98889.94;;;6.93;53.95
47430;BME280;33181;49.246;7.372;2023-04-20T00:11:27;98881.06;;;6.96;54.36
47430;BME280;33181;49.246;7.372;2023-04-20T00:13:53;98879.28;;;6.96;54.52
47430;BME280;33181;49.246;7.372;2023-04-20T00:16:18;98871.38;;;6.98;55.18
47430;BME280;33181;49.246;7.372;2023-04-20T00:18:47;98868.66;;;7.00;55.24
47430;BME280;33181;49.246;7.372;2023-04-20T00:21:17;98864.47;;;6.97;54.96
47430;BME280;33181;49.246;7.372;2023-04-20T00:23:46;98855.78;;;6.96;54.93
47430;BME280;33181;49.246;7.372;2023-04-20T00:26:12;98852.66;;;6.91;54.59
47430;BME280;33181;49.246;7.372;2023-04-20T00:28:38;98847.72;;;6.87;54.82
47430;BME280;33181;49.246;7.372;2023-04-20T00:31:04;98846.53;;;6.78;55.10
47430;BME280;33181;49.246;7.372;2023-04-20T00:33:30;98840.00;;;6.71;55.30
47430;BME280;33181;49.246;7.372;2023-04-20T00:35:56;98839.75;;;6.61;55.49
47430;BME280;33181;49.246;7.372;2023-04-20T00:38:21;98834.66;;;6.60;56.15
47430;BME280;33181;49.246;7.372;2023-04-20T00:40:47;98825.03;;;6.60;56.53
47430;BME280;33181;49.246;7.372;2023-04-20T00:43:17;98833.06;;;6.57;56.61
47430;BME280;33181;49.246;7.372;2023-04-20T00:45:45;98831.28;;;6.58;57.10
47430;BME280;33181;49.246;7.372;2023-04-20T00:48:11;98828.41;;;6.48;57.20
47430;BME280;33181;49.246;7.372;2023-04-20T00:50:38;98825.56;;;6.38;57.73
47430;BME280;33181;49.246;7.372;2023-04-20T00:53:05;98822.50;;;6.32;58.08
47430;BME280;33181;49.246;7.372;2023-04-20T00:55:32;98821.66;;;6.31;58.59
47430;BME280;33181;49.246;7.372;2023-04-20T00:57:58;98813.84;;;6.31;58.42
47430;BME280;33181;49.246;7.372;2023-04-20T01:00:24;98818.28;;;6.29;59.38
47430;BME280;33181;49.246;7.372;2023-04-20T01:02:50;98812.44;;;6.25;60.13
47430;BME280;33181;49.246;7.372;2023-04-20T01:05:17;98813.75;;;6.18;60.10
47430;BME280;33181;49.246;7.372;2023-04-20T01:07:43;98805.06;;;6.18;60.14
47430;BME280;33181;49.246;7.372;2023-04-20T01:10:09;98806.00;;;6.17;60.87
47430;BME280;33181;49.246;7.372;2023-04-20T01:12:35;98800.16;;;6.13;60.94
47430;BME280;33181;49.246;7.372;2023-04-20T01:15:03;98793.47;;;6.09;61.24
47430;BME280;33181;49.246;7.372;2023-04-20T01:17:31;98789.16;;;6.08;61.16
47430;BME280;33181;49.246;7.372;2023-04-20T01:19:58;98786.00;;;6.03;61.50
47430;BME280;33181;49.246;7.372;2023-04-20T01:22:25;98791.41;;;6.00;61.46
47430;BME280;33181;49.246;7.372;2023-04-20T01:24:51;98783.13;;;5.93;62.18
47430;BME280;33181;49.246;7.372;2023-04-20T01:27:17;98780.69;;;5.90;62.31
47430;BME280;33181;49.246;7.372;2023-04-20T01:29:44;98772.84;;;5.90;62.06
47430;BME280;33181;49.246;7.372;2023-04-20T01:32:11;98773.31;;;5.82;62.40
47430;BME280;33181;49.246;7.372;2023-04-20T01:34:37;98769.13;;;5.80;62.48
47430;BME280;33181;49.246;7.372;2023-04-20T01:37:03;98771.72;;;5.80;62.88
47430;BME280;33181;49.246;7.372;2023-04-20T01:39:38;98767.81;;;5.73;62.94
47430;BME280;33181;49.246;7.372;2023-04-20T01:42:05;98763.72;;;5.69;62.94
47430;BME280;33181;49.246;7.372;2023-04-20T01:44:31;98764.56;;;5.69;62.92
47430;BME280;33181;49.246;7.372;2023-04-20T01:46:56;98764.00;;;5.64;63.41
47430;BME280;33181;49.246;7.372;2023-04-20T01:49:23;98750.59;;;5.56;63.13
47430;BME280;33181;49.246;7.372;2023-04-20T01:51:48;98751.63;;;5.53;63.37
47430;BME280;33181;49.246;7.372;2023-04-20T01:54:14;98750.69;;;5.54;63.56
47430;BME280;33181;49.246;7.372;2023-04-20T01:56:40;98747.34;;;5.52;63.91
47430;BME280;33181;49.246;7.372;2023-04-20T01:59:06;98746.88;;;5.46;63.97
47430;BME280;33181;49.246;7.372;2023-04-20T02:01:31;98749.75;;;5.41;63.77
47430;BME280;33181;49.246;7.372;2023-04-20T02:03:57;98753.13;;;5.43;63.69
47430;BME280;33181;49.246;7.372;2023-04-20T02:06:23;98753.28;;;5.40;63.90
47430;BME280;33181;49.246;7.372;2023-04-20T02:08:49;98747.25;;;5.40;64.18
47430;BME280;33181;49.246;7.372;2023-04-20T02:11:15;98740.53;;;5.35;64.03
47430;BME280;33181;49.246;7.372;2023-04-20T02:13:40;98738.09;;;5.32;63.93
47430;BME280;33181;49.246;7.372;2023-04-20T02:16:06;98743.50;;;5.29;64.17
47430;BME280;33181;49.246;7.372;2023-04-20T02:18:33;98730.56;;;5.28;64.48
47430;BME280;33181;49.246;7.372;2023-04-20T02:21:00;98733.38;;;5.25;64.55
47430;BME280;33181;49.246;7.372;2023-04-20T02:23:26;98727.41;;;5.23;64.50
47430;BME280;33181;49.246;7.372;2023-04-20T02:25:52;98726.66;;;5.21;64.60
47430;BME280;33181;49.246;7.372;2023-04-20T02:28:17;98729.47;;;5.18;65.06
47430;BME280;33181;49.246;7.372;2023-04-20T02:30:43;98721.91;;;5.13;64.31
47430;BME280;33181;49.246;7.372;2023-04-20T02:33:09;98711.47;;;5.13;64.58
47430;BME280;33181;49.246;7.372;2023-04-20T02:35:35;98714.38;;;5.08;64.75
47430;BME280;33181;49.246;7.372;2023-04-20T02:38:01;98711.66;;;4.96;65.33
47430;BME280;33181;49.246;7.372;2023-04-20T02:40:27;98715.44;;;4.90;65.90
47430;BME280;33181;49.246;7.372;2023-04-20T02:42:55;98714.84;;;4.85;65.68
47430;BME280;33181;49.246;7.372;2023-04-20T02:45:21;98710.09;;;4.77;65.12
47430;BME280;33181;49.246;7.372;2023-04-20T02:47:46;98706.50;;;4.80;65.04
47430;BME280;33181;49.246;7.372;2023-04-20T02:50:16;98705.84;;;4.76;65.15
47430;BME280;33181;49.246;7.372;2023-04-20T02:52:42;98712.41;;;4.68;65.89
47430;BME280;33181;49.246;7.372;2023-04-20T02:55:08;98703.66;;;4.69;66.12
47430;BME280;33181;49.246;7.372;2023-04-20T02:57:34;98711.56;;;4.67;65.80
47430;BME280;33181;49.246;7.372;2023-04-20T03:00:00;98712.94;;;4.58;66.26
47430;BME280;33181;49.246;7.372;2023-04-20T03:02:26;98709.56;;;4.56;66.27
47430;BME280;33181;49.246;7.372;2023-04-20T03:04:54;98713.69;;;4.60;66.48
47430;BME280;33181;49.246;7.372;2023-04-20T03:07:19;98708.13;;;4.67;66.35
47430;BME280;33181;49.246;7.372;2023-04-20T03:09:45;98707.19;;;4.68;66.53
47430;BME280;33181;49.246;7.372;2023-04-20T03:12:11;98706.09;;;4.72;66.42
47430;BME280;33181;49.246;7.372;2023-04-20T03:14:36;98702.72;;;4.70;66.24
47430;BME280;33181;49.246;7.372;2023-04-20T03:17:02;98708.88;;;4.69;66.10
47430;BME280;33181;49.246;7.372;2023-04-20T03:19:28;98700.34;;;4.67;66.45
47430;BME280;33181;49.246;7.372;2023-04-20T03:21:54;98701.41;;;4.62;66.34
47430;BME280;33181;49.246;7.372;2023-04-20T03:24:20;98698.81;;;4.62;66.23
47430;BME280;33181;49.246;7.372;2023-04-20T03:26:46;98703.28;;;4.60;66.36
47430;BME280;33181;49.246;7.372;2023-04-20T03:29:12;98695.47;;;4.60;66.38
47430;BME280;33181;49.246;7.372;2023-04-20T03:31:38;98694.53;;;4.61;66.32
47430;BME280;33181;49.246;7.372;2023-04-20T03:34:04;98693.78;;;4.59;65.94
47430;BME280;33181;49.246;7.372;2023-04-20T03:36:30;98690.44;;;4.57;66.12
47430;BME280;33181;49.246;7.372;2023-04-20T03:38:56;98695.72;;;4.56;66.25
47430;BME280;33181;49.246;7.372;2023-04-20T03:41:22;98690.03;;;4.49;66.49
47430;BME280;33181;49.246;7.372;2023-04-20T03:43:48;98685.66;;;4.50;66.56
47430;BME280;33181;49.246;7.372;2023-04-20T03:46:13;98691.16;;;4.45;66.33
47430;BME280;33181;49.246;7.372;2023-04-20T03:48:39;98686.84;;;4.44;67.11
47430;BME280;33181;49.246;7.372;2023-04-20T03:51:05;98683.34;;;4.45;67.08
47430;BME280;33181;49.246;7.372;2023-04-20T03:53:31;98678.81;;;4.49;66.81
47430;BME280;33181;49.246;7.372;2023-04-20T03:55:56;98682.25;;;4.49;66.56
47430;BME280;33181;49.246;7.372;2023-04-20T03:58:22;98679.91;;;4.45;66.81
47430;BME280;33181;49.246;7.372;2023-04-20T04:00:48;98672.28;;;4.41;66.81
47430;BME280;33181;49.246;7.372;2023-04-20T04:03:14;98669.84;;;4.38;66.67
47430;BME280;33181;49.246;7.372;2023-04-20T04:05:40;98674.91;;;4.26;66.92
47430;BME280;33181;49.246;7.372;2023-04-20T04:08:06;98669.03;;;4.22;67.38
47430;BME280;33181;49.246;7.372;2023-04-20T04:10:32;98676.66;;;4.25;67.56
47430;BME280;33181;49.246;7.372;2023-04-20T04:12:58;98676.47;;;4.28;67.60
47430;BME280;33181;49.246;7.372;2023-04-20T04:15:23;98671.22;;;4.30;67.17
47430;BME280;33181;49.246;7.372;2023-04-20T04:17:49;98669.44;;;4.30;67.51
47430;BME280;33181;49.246;7.372;2023-04-20T04:20:15;98682.88;;;4.23;67.30
47430;BME280;33181;49.246;7.372;2023-04-20T04:22:41;98678.03;;;4.16;67.68
47430;BME280;33181;49.246;7.372;2023-04-20T04:25:08;98676.75;;;4.08;67.63
47430;BME280;33181;49.246;7.372;2023-04-20T04:27:34;98681.69;;;4.12;67.67
47430;BME280;33181;49.246;7.372;2023-04-20T04:30:05;98677.16;;;4.16;67.46
47430;BME280;33181;49.246;7.372;2023-04-20T04:32:31;98676.25;;;4.17;67.70
47430;BME280;33181;49.246;7.372;2023-04-20T04:34:59;98681.34;;;4.18;67.97
47430;BME280;33181;49.246;7.372;2023-04-20T04:37:26;98673.50;;;4.20;68.04
47430;BME280;33181;49.246;7.372;2023-04-20T04:39:53;98672.66;;;4.20;67.97
47430;BME280;33181;49.246;7.372;2023-04-20T04:42:19;98671.13;;;4.15;67.73
47430;BME280;33181;49.246;7.372;2023-04-20T04:44:46;98666.19;;;4.11;68.02
47430;BME280;33181;49.246;7.372;2023-04-20T04:47:11;98663.94;;;4.05;67.54
47430;BME280;33181;49.246;7.372;2023-04-20T04:49:38;98654.31;;;3.91;67.96
47430;BME280;33181;49.246;7.372;2023-04-20T04:52:06;98652.38;;;3.79;68.36
47430;BME280;33181;49.246;7.372;2023-04-20T04:54:32;98649.69;;;3.80;68.59
47430;BME280;33181;49.246;7.372;2023-04-20T04:56:58;98653.72;;;3.86;68.69
47430;BME280;33181;49.246;7.372;2023-04-20T04:59:24;98648.31;;;4.21;68.57
47430;BME280;33181;49.246;7.372;2023-04-20T05:01:51;98648.88;;;4.41;67.27
47430;BME280;33181;49.246;7.372;2023-04-20T05:04:17;98650.03;;;4.52;67.29
47430;BME280;33181;49.246;7.372;2023-04-20T05:06:43;98650.81;;;4.68;66.87
47430;BME280;33181;49.246;7.372;2023-04-20T05:09:09;98649.44;;;4.91;67.00
47430;BME280;33181;49.246;7.372;2023-04-20T05:11:34;98647.34;;;5.12;66.12
47430;BME280;33181;49.246;7.372;2023-04-20T05:14:00;98651.91;;;5.37;65.00
47430;BME280;33181;49.246;7.372;2023-04-20T05:16:27;98653.47;;;5.68;64.35
47430;BME280;33181;49.246;7.372;2023-04-20T05:18:53;98652.28;;;6.01;64.01
47430;BME280;33181;49.246;7.372;2023-04-20T05:21:19;98651.28;;;6.31;63.09
47430;BME280;33181;49.246;7.372;2023-04-20T05:23:45;98651.75;;;6.50;62.57
47430;BME280;33181;49.246;7.372;2023-04-20T05:26:11;98654.72;;;6.84;61.84
47430;BME280;33181;49.246;7.372;2023-04-20T05:28:37;98655.69;;;7.08;60.90
47430;BME280;33181;49.246;7.372;2023-04-20T05:31:02;98651.06;;;7.37;59.35
47430;BME280;33181;49.246;7.372;2023-04-20T05:33:28;98654.19;;;7.55;58.48
47430;BME280;33181;49.246;7.372;2023-04-20T05:35:57;98661.38;;;7.77;58.08
47430;BME280;33181;49.246;7.372;2023-04-20T05:38:23;98661.44;;;7.88;57.64
47430;BME280;33181;49.246;7.372;2023-04-20T05:40:50;98662.25;;;8.02;56.70
47430;BME280;33181;49.246;7.372;2023-04-20T05:43:16;98656.03;;;7.79;56.24
47430;BME280;33181;49.246;7.372;2023-04-20T05:45:47;98656.09;;;7.90;56.80
47430;BME280;33181;49.246;7.372;2023-04-20T05:48:13;98639.38;;;8.17;56.72
47430;BME280;33181;49.246;7.372;2023-04-20T05:50:39;98647.50;;;8.25;56.24
47430;BME280;33181;49.246;7.372;2023-04-20T05:53:05;98641.19;;;8.40;56.02
47430;BME280;33181;49.246;7.372;2023-04-20T05:55:30;98635.69;;;8.67;55.92
47430;BME280;33181;49.246;7.372;2023-04-20T05:57:56;98631.94;;;8.94;55.41
47430;BME280;33181;49.246;7.372;2023-04-20T06:00:22;98627.78;;;9.14;54.40
47430;BME280;33181;49.246;7.372;2023-04-20T06:02:48;98629.25;;;9.40;54.21
47430;BME280;33181;49.246;7.372;2023-04-20T06:05:14;98624.81;;;9.63;53.52
47430;BME280;33181;49.246;7.372;2023-04-20T06:07:40;98628.84;;;9.79;52.19
47430;BME280;33181;49.246;7.372;2023-04-20T06:10:07;98625.66;;;9.41;51.61
47430;BME280;33181;49.246;7.372;2023-04-20T06:12:33;98616.72;;;9.33;52.04
47430;BME280;33181;49.246;7.372;2023-04-20T06:14:59;98615.28;;;9.17;52.01
47430;BME280;33181;49.246;7.372;2023-04-20T06:17:25;98616.00;;;9.19;52.40
47430;BME280;33181;49.246;7.372;2023-04-20T06:19:52;98615.81;;;8.65;52.62
47430;BME280;33181;49.246;7.372;2023-04-20T06:22:18;98618.09;;;8.21;54.27
47430;BME280;33181;49.246;7.372;2023-04-20T06:24:44;98619.03;;;7.59;55.92
47430;BME280;33181;49.246;7.372;2023-04-20T06:27:11;98616.41;;;7.10;57.40
47430;BME280;33181;49.246;7.372;2023-04-20T06:29:37;98619.25;;;6.81;58.16
47430;BME280;33181;49.246;7.372;2023-04-20T06:32:03;98618.78;;;6.62;59.07
47430;BME280;33181;49.246;7.372;2023-04-20T06:34:29;98610.53;;;6.68;59.18
47430;BME280;33181;49.246;7.372;2023-04-20T06:36:55;98611.81;;;6.62;59.82
47430;BME280;33181;49.246;7.372;2023-04-20T06:39:21;98615.59;;;6.31;60.25
47430;BME280;33181;49.246;7.372;2023-04-20T06:41:47;98599.94;;;6.31;60.46
47430;BME280;33181;49.246;7.372;2023-04-20T06:44:12;98602.34;;;6.34;60.95
47430;BME280;33181;49.246;7.372;2023-04-20T06:46:38;98597.97;;;6.35;60.75
47430;BME280;33181;49.246;7.372;2023-04-20T06:49:04;98592.22;;;6.42;61.08
47430;BME280;33181;49.246;7.372;2023-04-20T06:51:31;98599.44;;;6.39;60.77
47430;BME280;33181;49.246;7.372;2023-04-20T06:53:57;98600.06;;;6.42;60.95
47430;BME280;33181;49.246;7.372;2023-04-20T06:56:23;98590.59;;;6.54;60.92
47430;BME280;33181;49.246;7.372;2023-04-20T06:58:48;98598.75;;;6.62;61.44
47430;BME280;33181;49.246;7.372;2023-04-20T07:01:14;98598.81;;;6.48;61.25
47430;BME280;33181;49.246;7.372;2023-04-20T07:03:40;98594.53;;;6.34;61.98
47430;BME280;33181;49.246;7.372;2023-04-20T07:06:06;98599.84;;;6.45;61.84
47430;BME280;33181;49.246;7.372;2023-04-20T07:08:32;98598.53;;;6.53;61.72
47430;BME280;33181;49.246;7.372;2023-04-20T07:10:58;98603.50;;;6.43;62.17
47430;BME280;33181;49.246;7.372;2023-04-20T07:13:24;98602.59;;;6.57;61.87
47430;BME280;33181;49.246;7.372;2023-04-20T07:15:51;98605.31;;;6.68;62.04
47430;BME280;33181;49.246;7.372;2023-04-20T07:18:17;98606.75;;;6.46;61.99
47430;BME280;33181;49.246;7.372;2023-04-20T07:20:43;98616.66;;;6.41;62.39
47430;BME280;33181;49.246;7.372;2023-04-20T07:23:11;98612.16;;;6.31;62.78
47430;BME280;33181;49.246;7.372;2023-04-20T07:25:37;98606.56;;;6.49;62.64
47430;BME280;33181;49.246;7.372;2023-04-20T07:28:02;98605.72;;;6.62;62.48
47430;BME280;33181;49.246;7.372;2023-04-20T07:30:28;98603.78;;;6.65;62.85
47430;BME280;33181;49.246;7.372;2023-04-20T07:32:56;98611.69;;;6.77;62.88
47430;BME280;33181;49.246;7.372;2023-04-20T07:35:22;98606.91;;;6.96;62.40
47430;BME280;33181;49.246;7.372;2023-04-20T07:37:47;98606.19;;;6.94;62.36
47430;BME280;33181;49.246;7.372;2023-04-20T07:40:13;98610.88;;;6.76;62.76
47430;BME280;33181;49.246;7.372;2023-04-20T07:42:41;98610.13;;;6.74;63.07
47430;BME280;33181;49.246;7.372;2023-04-20T07:45:09;98615.53;;;6.71;63.32
47430;BME280;33181;49.246;7.372;2023-04-20T07:47:36;98611.19;;;6.71;63.78
47430;BME280;33181;49.246;7.372;2023-04-20T07:50:06;98619.66;;;6.75;63.58
47430;BME280;33181;49.246;7.372;2023-04-20T07:52:32;98618.50;;;6.79;63.77
47430;BME280;33181;49.246;7.372;2023-04-20T07:54:58;98605.97;;;7.23;62.82
47430;BME280;33181;49.246;7.372;2023-04-20T07:57:28;98607.59;;;7.36;62.88
47430;BME280;33181;49.246;7.372;2023-04-20T07:59:54;98607.97;;;7.56;62.18
47430;BME280;33181;49.246;7.372;2023-04-20T08:02:20;98606.31;;;7.92;62.29
47430;BME280;33181;49.246;7.372;2023-04-20T08:04:46;98607.41;;;8.24;60.73
47430;BME280;33181;49.246;7.372;2023-04-20T08:07:13;98609.97;;;8.37;59.59
47430;BME280;33181;49.246;7.372;2023-04-20T08:09:39;98604.72;;;8.37;59.63
47430;BME280;33181;49.246;7.372;2023-04-20T08:12:05;98607.88;;;8.42;60.41
47430;BME280;33181;49.246;7.372;2023-04-20T08:14:31;98611.44;;;8.17;60.00
47430;BME280;33181;49.246;7.372;2023-04-20T08:16:58;98608.88;;;8.04;60.64
47430;BME280;33181;49.246;7.372;2023-04-20T08:19:24;98602.44;;;7.84;61.37
47430;BME280;33181;49.246;7.372;2023-04-20T08:21:51;98603.56;;;7.93;61.52
47430;BME280;33181;49.246;7.372;2023-04-20T08:24:17;98594.25;;;8.02;61.28
47430;BME280;33181;49.246;7.372;2023-04-20T08:26:43;98591.78;;;8.35;61.33
47430;BME280;33181;49.246;7.372;2023-04-20T08:29:09;98586.31;;;8.74;60.77
47430;BME280;33181;49.246;7.372;2023-04-20T08:31:35;98586.91;;;8.77;59.36
47430;BME280;33181;49.246;7.372;2023-04-20T08:34:01;98579.84;;;8.67;59.74
47430;BME280;33181;49.246;7.372;2023-04-20T08:36:27;98577.66;;;9.18;59.46
47430;BME280;33181;49.246;7.372;2023-04-20T08:39:03;98576.09;;;9.38;58.90
47430;BME280;33181;49.246;7.372;2023-04-20T08:41:30;98578.22;;;9.99;57.51
47430;BME280;33181;49.246;7.372;2023-04-20T08:43:56;98573.13;;;9.86;56.75
47430;BME280;33181;49.246;7.372;2023-04-20T08:46:23;98573.59;;;10.24;56.11
47430;BME280;33181;49.246;7.372;2023-04-20T08:48:49;98563.75;;;10.48;55.46
47430;BME280;33181;49.246;7.372;2023-04-20T08:51:17;98578.84;;;10.77;55.05
47430;BME280;33181;49.246;7.372;2023-04-20T08:53:43;98573.72;;;10.33;54.29
47430;BME280;33181;49.246;7.372;2023-04-20T08:56:09;98574.09;;;10.17;54.32
47430;BME280;33181;49.246;7.372;2023-04-20T08:58:35;98572.31;;;10.18;55.23
47430;BME280;33181;49.246;7.372;2023-04-20T09:01:03;98567.53;;;10.34;54.80
47430;BME280;33181;49.246;7.372;2023-04-20T09:03:37;98559.53;;;10.87;54.68
47430;BME280;33181;49.246;7.372;2023-04-20T09:06:12;98553.47;;;10.87;53.23
47430;BME280;33181;49.246;7.372;2023-04-20T09:08:43;98555.91;;;11.09;53.54
47430;BME280;33181;49.246;7.372;2023-04-20T09:11:28;98554.75;;;11.73;52.15
47430;BME280;33181;49.246;7.372;2023-04-20T09:14:08;98545.00;;;11.54;52.01
47430;BME280;33181;49.246;7.372;2023-04-20T09:16:59;98549.72;;;11.51;52.15
47430;BME280;33181;49.246;7.372;2023-04-20T09:19:30;98549.25;;;11.05;52.58
47430;BME280;33181;49.246;7.372;2023-04-20T09:21:58;98549.78;;;10.48;53.65
47430;BME280;33181;49.246;7.372;2023-04-20T09:24:34;98544.34;;;10.60;53.53
47430;BME280;33181;49.246;7.372;2023-04-20T09:27:15;98534.06;;;10.78;53.95
47430;BME280;33181;49.246;7.372;2023-04-20T09:29:41;98529.25;;;11.14;54.27
47430;BME280;33181;49.246;7.372;2023-04-20T09:32:33;98530.19;;;11.63;52.37
47430;BME280;33181;49.246;7.372;2023-04-20T09:35:00;98522.38;;;11.32;51.94
47430;BME280;33181;49.246;7.372;2023-04-20T09:37:26;98523.72;;;11.77;51.46
47430;BME280;33181;49.246;7.372;2023-04-20T09:40:07;98515.94;;;11.75;52.73
47430;BME280;33181;49.246;7.372;2023-04-20T09:42:37;98511.88;;;11.92;51.83
47430;BME280;33181;49.246;7.372;2023-04-20T09:45:05;98520.28;;;12.35;51.08
47430;BME280;33181;49.246;7.372;2023-04-20T09:47:34;98516.09;;;12.42;50.19
47430;BME280;33181;49.246;7.372;2023-04-20T09:50:03;98506.41;;;12.23;49.76
47430;BME280;33181;49.246;7.372;2023-04-20T09:52:29;98508.78;;;12.16;50.69
47430;BME280;33181;49.246;7.372;2023-04-20T09:54:57;98496.03;;;12.31;49.96
47430;BME280;33181;49.246;7.372;2023-04-20T09:57:32;98500.06;;;12.25;50.25
47430;BME280;33181;49.246;7.372;2023-04-20T09:59:59;98507.66;;;12.28;50.67
47430;BME280;33181;49.246;7.372;2023-04-20T10:02:28;98499.38;;;12.14;50.75
47430;BME280;33181;49.246;7.372;2023-04-20T10:04:55;98511.59;;;11.95;51.51
47430;BME280;33181;49.246;7.372;2023-04-20T10:07:25;98502.94;;;11.54;51.49
47430;BME280;33181;49.246;7.372;2023-04-20T10:10:14;98490.31;;;11.48;51.73
47430;BME280;33181;49.246;7.372;2023-04-20T10:12:55;98488.47;;;10.89;53.64
47430;BME280;33181;49.246;7.372;2023-04-20T10:15:23;98499.06;;;11.08;54.30
47430;BME280;33181;49.246;7.372;2023-04-20T10:17:52;98491.84;;;11.01;54.56
47430;BME280;33181;49.246;7.372;2023-04-20T10:20:24;98487.47;;;11.21;54.29
47430;BME280;33181;49.246;7.372;2023-04-20T10:22:51;98477.72;;;11.71;53.97
47430;BME280;33181;49.246;7.372;2023-04-20T10:25:23;98473.59;;;11.88;52.71
47430;BME280;33181;49.246;7.372;2023-04-20T10:28:07;98462.94;;;11.99;52.62
47430;BME280;33181;49.246;7.372;2023-04-20T10:30:36;98463.72;;;11.42;53.65
47430;BME280;33181;49.246;7.372;2023-04-20T10:33:07;98470.41;;;11.05;54.80
47430;BME280;33181;49.246;7.372;2023-04-20T10:35:54;98466.44;;;10.80;56.67
47430;BME280;33181;49.246;7.372;2023-04-20T10:38:36;98469.31;;;11.08;57.19
47430;BME280;33181;49.246;7.372;2023-04-20T10:41:07;98461.72;;;11.14;56.32
47430;BME280;33181;49.246;7.372;2023-04-20T10:43:33;98453.03;;;11.24;55.64
47430;BME280;33181;49.246;7.372;2023-04-20T10:46:42;98457.66;;;11.60;55.92
47430;BME280;33181;49.246;7.372;2023-04-20T10:49:37;98440.75;;;12.21;54.33
47430;BME280;33181;49.246;7.372;2023-04-20T10:52:02;98449.06;;;12.64;52.40
47430;BME280;33181;49.246;7.372;2023-04-20T10:54:36;98446.72;;;12.70;51.79
47430;BME280;33181;49.246;7.372;2023-04-20T10:57:05;98443.84;;;12.54;52.24
47430;BME280;33181;49.246;7.372;2023-04-20T10:59:32;98432.53;;;12.34;52.26
47430;BME280;33181;49.246;7.372;2023-04-20T11:02:06;98447.13;;;12.09;52.41
47430;BME280;33181;49.246;7.372;2023-04-20T11:04:33;98440.91;;;11.71;53.12
47430;BME280;33181;49.246;7.372;2023-04-20T11:07:09;98442.06;;;11.09;54.93
47430;BME280;33181;49.246;7.372;2023-04-20T11:09:36;98429.41;;;11.72;54.49
47430;BME280;33181;49.246;7.372;2023-04-20T11:12:07;98433.72;;;11.54;54.06
47430;BME280;33181;49.246;7.372;2023-04-20T11:14:49;98422.22;;;11.45;55.04
47430;BME280;33181;49.246;7.372;2023-04-20T11:17:15;98422.75;;;11.49;54.71
47430;BME280;33181;49.246;7.372;2023-04-20T11:19:41;98413.59;;;11.82;55.14
47430;BME280;33181;49.246;7.372;2023-04-20T11:22:06;98413.63;;;12.11;53.28
47430;BME280;33181;49.246;7.372;2023-04-20T11:24:34;98414.25;;;12.33;53.06
47430;BME280;33181;49.246;7.372;2023-04-20T11:27:01;98406.34;;;12.33;51.81
47430;BME280;33181;49.246;7.372;2023-04-20T11:29:34;98411.34;;;12.26;52.46
47430;BME280;33181;49.246;7.372;2023-04-20T11:34:31;98402.97;;;11.93;53.68
47430;BME280;33181;49.246;7.372;2023-04-20T11:37:09;98393.28;;;11.65;53.27
47430;BME280;33181;49.246;7.372;2023-04-20T11:39:38;98393.94;;;11.37;53.69
47430;BME280;33181;49.246;7.372;2023-04-20T11:42:04;98385.22;;;11.37;53.98
47430;BME280;33181;49.246;7.372;2023-04-20T11:44:30;98393.81;;;11.58;54.36
47430;BME280;33181;49.246;7.372;2023-04-20T11:46:57;98395.63;;;11.48;53.12
47430;BME280;33181;49.246;7.372;2023-04-20T11:49:25;98386.91;;;11.67;54.96
47430;BME280;33181;49.246;7.372;2023-04-20T11:51:52;98391.06;;;11.70;53.32
47430;BME280;33181;49.246;7.372;2023-04-20T11:54:18;98378.44;;;11.83;51.81
47430;BME280;33181;49.246;7.372;2023-04-20T11:56:44;98374.44;;;11.50;53.18
47430;BME280;33181;49.246;7.372;2023-04-20T11:59:11;98388.13;;;11.63;52.14
47430;BME280;33181;49.246;7.372;2023-04-20T12:01:38;98381.78;;;11.95;52.02
47430;BME280;33181;49.246;7.372;2023-04-20T12:04:04;98385.47;;;12.12;51.38
47430;BME280;33181;49.246;7.372;2023-04-20T12:06:30;98376.69;;;12.31;50.01
47430;BME280;33181;49.246;7.372;2023-04-20T12:08:57;98378.25;;;12.51;49.66
47430;BME280;33181;49.246;7.372;2023-04-20T12:11:23;98384.94;;;12.55;50.25
47430;BME280;33181;49.246;7.372;2023-04-20T12:13:49;98374.81;;;12.78;50.74
47430;BME280;33181;49.246;7.372;2023-04-20T12:16:15;98377.50;;;13.14;50.00
47430;BME280;33181;49.246;7.372;2023-04-20T12:18:41;98379.84;;;13.17;49.33
47430;BME280;33181;49.246;7.372;2023-04-20T12:21:10;98375.25;;;12.46;49.11
47430;BME280;33181;49.246;7.372;2023-04-20T12:23:35;98369.78;;;12.29;50.65
47430;BME280;33181;49.246;7.372;2023-04-20T12:26:02;98374.16;;;12.01;51.31
47430;BME280;33181;49.246;7.372;2023-04-20T12:28:30;98387.72;;;11.77;53.29
47430;BME280;33181;49.246;7.372;2023-04-20T12:30:56;98390.22;;;11.40;52.81
47430;BME280;33181;49.246;7.372;2023-04-20T12:33:22;98395.31;;;11.12;54.83
47430;BME280;33181;49.246;7.372;2023-04-20T12:35:48;98393.44;;;10.84;57.30
47430;BME280;33181;49.246;7.372;2023-04-20T12:38:13;98398.91;;;10.61;58.45
47430;BME280;33181;49.246;7.372;2023-04-20T12:40:39;98396.81;;;10.55;60.64
47430;BME280;33181;49.246;7.372;2023-04-20T12:43:05;98395.72;;;10.58;61.52
47430;BME280;33181;49.246;7.372;2023-04-20T12:45:31;98392.53;;;10.54;60.37
47430;BME280;33181;49.246;7.372;2023-04-20T12:47:57;98383.34;;;10.79;62.04
47430;BME280;33181;49.246;7.372;2023-04-20T12:50:24;98378.25;;;10.87;62.06
47430;BME280;33181;49.246;7.372;2023-04-20T12:52:50;98393.16;;;10.77;61.00
47430;BME280;33181;49.246;7.372;2023-04-20T12:55:21;98391.78;;;10.73;61.12
47430;BME280;33181;49.246;7.372;2023-04-20T12:57:47;98384.84;;;10.62;59.67
47430;BME280;33181;49.246;7.372;2023-04-20T13:00:13;98389.94;;;10.64;60.53
47430;BME280;33181;49.246;7.372;2023-04-20T13:02:39;98383.13;;;10.52;60.37
47430;BME280;33181;49.246;7.372;2023-04-20T13:05:06;98389.19;;;10.52;62.11
47430;BME280;33181;49.246;7.372;2023-04-20T13:07:32;98394.44;;;10.52;60.70
47430;BME280;33181;49.246;7.372;2023-04-20T13:10:01;98388.00;;;10.56;59.39
47430;BME280;33181;49.246;7.372;2023-04-20T13:12:28;98379.19;;;10.77;60.49